sensor_id;sensor_type;location;lat;lon;timestamp;P1;durP1;ratioP1;P2;durP2;ratioP2
16994;SDS011;8614;48.522;9.206;2022-07-17T00:00:53;7.13;;;6.53;;
16994;SDS011;8614;48.522;9.206;2022-07-17T00:03:20;7.20;;;6.50;;
16994;SDS011;8614;48.522;9.206;2022-07-17T00:05:47;6.90;;;6.20;;
16994;SDS011;8614;48.522;9.206;2022-07-17T00:08:14;6.80;;;6.17;;
16994;SDS011;8614;48.522;9.206;2022-07-17T00:10:41;7.27;;;6.53;;
16994;SDS011;8614;48.522;9.206;2022-07-17T00:13:09;6.57;;;5.97;;
16994;SDS011;8614;48.522;9.206;2022-07-17T00:15:38;7.13;;;6.43;;
16994;SDS011;8614;48.522;9.206;2022-07-17T00:18:04;6.80;;;6.20;;
16994;SDS011;8614;48.522;9.206;2022-07-17T00:20:32;7.70;;;6.90;;
16994;SDS011;8614;48.522;9.206;2022-07-17T00:23:00;6.20;;;5.70;;
16994;SDS011;8614;48.522;9.206;2022-07-17T00:25:27;6.57;;;6.07;;
16994;SDS011;8614;48.522;9.206;2022-07-17T00:27:54;7.03;;;6.33;;
16994;SDS011;8614;48.522;9.206;2022-07-17T00:30:21;6.40;;;5.90;;
16994;SDS011;8614;48.522;9.206;2022-07-17T00:32:49;6.80;;;6.20;;
16994;SDS011;8614;48.522;9.206;2022-07-17T00:35:16;6.63;;;6.13;;
16994;SDS011;8614;48.522;9.206;2022-07-17T00:37:44;6.93;;;6.30;;
16994;SDS011;8614;48.522;9.206;2022-07-17T00:40:13;7.00;;;6.30;;
16994;SDS011;8614;48.522;9.206;2022-07-17T00:42:42;6.90;;;6.30;;
16994;SDS011;8614;48.522;9.206;2022-07-17T00:45:10;6.80;;;6.20;;
16994;SDS011;8614;48.522;9.206;2022-07-17T00:47:44;7.33;;;6.73;;
16994;SDS011;8614;48.522;9.206;2022-07-17T00:50:18;7.60;;;6.70;;
16994;SDS011;8614;48.522;9.206;2022-07-17T00:52:46;7.23;;;6.53;;
16994;SDS011;8614;48.522;9.206;2022-07-17T00:55:13;6.50;;;5.90;;
16994;SDS011;8614;48.522;9.206;2022-07-17T00:57:40;7.10;;;6.40;;
16994;SDS011;8614;48.522;9.206;2022-07-17T01:00:08;6.67;;;6.13;;
16994;SDS011;8614;48.522;9.206;2022-07-17T01:02:36;6.47;;;5.87;;
16994;SDS011;8614;48.522;9.206;2022-07-17T01:05:05;6.90;;;6.30;;
16994;SDS011;8614;48.522;9.206;2022-07-17T01:07:32;7.10;;;6.50;;
16994;SDS011;8614;48.522;9.206;2022-07-17T01:09:59;7.03;;;6.43;;
16994;SDS011;8614;48.522;9.206;2022-07-17T01:12:26;6.80;;;6.20;;
16994;SDS011;8614;48.522;9.206;2022-07-17T01:14:53;6.50;;;5.90;;
16994;SDS011;8614;48.522;9.206;2022-07-17T01:17:23;6.70;;;6.10;;
16994;SDS011;8614;48.522;9.206;2022-07-17T01:19:50;7.00;;;6.33;;
16994;SDS011;8614;48.522;9.206;2022-07-17T01:22:19;6.37;;;5.87;;
16994;SDS011;8614;48.522;9.206;2022-07-17T01:24:46;6.20;;;5.70;;
16994;SDS011;8614;48.522;9.206;2022-07-17T01:27:13;6.97;;;6.30;;
16994;SDS011;8614;48.522;9.206;2022-07-17T01:29:41;6.90;;;6.30;;
16994;SDS011;8614;48.522;9.206;2022-07-17T01:32:07;7.10;;;6.40;;
16994;SDS011;8614;48.522;9.206;2022-07-17T01:34:34;6.77;;;6.17;;
16994;SDS011;8614;48.522;9.206;2022-07-17T01:37:01;7.37;;;6.67;;
16994;SDS011;8614;48.522;9.206;2022-07-17T01:39:29;7.03;;;6.33;;
16994;SDS011;8614;48.522;9.206;2022-07-17T01:42:19;6.53;;;6.03;;
16994;SDS011;8614;48.522;9.206;2022-07-17T01:44:46;7.10;;;6.47;;
16994;SDS011;8614;48.522;9.206;2022-07-17T01:47:13;6.87;;;6.23;;
16994;SDS011;8614;48.522;9.206;2022-07-17T01:49:42;6.47;;;5.97;;
16994;SDS011;8614;48.522;9.206;2022-07-17T01:52:10;7.70;;;7.00;;
16994;SDS011;8614;48.522;9.206;2022-07-17T01:54:38;7.60;;;6.77;;
16994;SDS011;8614;48.522;9.206;2022-07-17T01:57:05;7.23;;;6.53;;
16994;SDS011;8614;48.522;9.206;2022-07-17T01:59:32;7.73;;;7.03;;
16994;SDS011;8614;48.522;9.206;2022-07-17T02:01:59;7.67;;;6.87;;
16994;SDS011;8614;48.522;9.206;2022-07-17T02:04:26;7.40;;;6.80;;
16994;SDS011;8614;48.522;9.206;2022-07-17T02:06:53;7.43;;;6.73;;
16994;SDS011;8614;48.522;9.206;2022-07-17T02:09:20;7.30;;;6.70;;
16994;SDS011;8614;48.522;9.206;2022-07-17T02:11:49;7.50;;;6.90;;
16994;SDS011;8614;48.522;9.206;2022-07-17T02:14:16;7.93;;;7.10;;
16994;SDS011;8614;48.522;9.206;2022-07-17T02:16:43;7.73;;;6.93;;
16994;SDS011;8614;48.522;9.206;2022-07-17T02:19:10;7.70;;;7.00;;
16994;SDS011;8614;48.522;9.206;2022-07-17T02:21:37;8.20;;;6.80;;
16994;SDS011;8614;48.522;9.206;2022-07-17T02:24:04;7.57;;;6.80;;
16994;SDS011;8614;48.522;9.206;2022-07-17T02:26:31;7.30;;;6.70;;
16994;SDS011;8614;48.522;9.206;2022-07-17T02:28:59;7.07;;;6.47;;
16994;SDS011;8614;48.522;9.206;2022-07-17T02:31:26;7.23;;;6.53;;
16994;SDS011;8614;48.522;9.206;2022-07-17T02:33:53;7.10;;;6.50;;
16994;SDS011;8614;48.522;9.206;2022-07-17T02:36:19;7.27;;;6.67;;
16994;SDS011;8614;48.522;9.206;2022-07-17T02:38:46;7.03;;;6.43;;
16994;SDS011;8614;48.522;9.206;2022-07-17T02:41:13;7.37;;;6.77;;
16994;SDS011;8614;48.522;9.206;2022-07-17T02:43:41;7.93;;;7.23;;
16994;SDS011;8614;48.522;9.206;2022-07-17T02:46:09;8.00;;;7.30;;
16994;SDS011;8614;48.522;9.206;2022-07-17T02:48:38;7.20;;;6.60;;
16994;SDS011;8614;48.522;9.206;2022-07-17T02:51:05;7.67;;;6.93;;
16994;SDS011;8614;48.522;9.206;2022-07-17T02:53:32;7.47;;;6.87;;
16994;SDS011;8614;48.522;9.206;2022-07-17T02:55:59;7.37;;;6.73;;
16994;SDS011;8614;48.522;9.206;2022-07-17T02:58:26;7.20;;;6.53;;
16994;SDS011;8614;48.522;9.206;2022-07-17T03:00:53;7.67;;;7.07;;
16994;SDS011;8614;48.522;9.206;2022-07-17T03:03:21;7.53;;;6.87;;
16994;SDS011;8614;48.522;9.206;2022-07-17T03:05:48;7.30;;;6.70;;
16994;SDS011;8614;48.522;9.206;2022-07-17T03:08:15;7.40;;;6.67;;
16994;SDS011;8614;48.522;9.206;2022-07-17T03:10:42;7.90;;;7.20;;
16994;SDS011;8614;48.522;9.206;2022-07-17T03:13:09;8.43;;;7.63;;
16994;SDS011;8614;48.522;9.206;2022-07-17T03:15:38;8.00;;;7.33;;
16994;SDS011;8614;48.522;9.206;2022-07-17T03:18:05;8.20;;;7.40;;
16994;SDS011;8614;48.522;9.206;2022-07-17T03:20:33;8.23;;;7.53;;
16994;SDS011;8614;48.522;9.206;2022-07-17T03:23:00;8.07;;;7.37;;
16994;SDS011;8614;48.522;9.206;2022-07-17T03:25:27;8.73;;;7.83;;
16994;SDS011;8614;48.522;9.206;2022-07-17T03:27:54;8.17;;;7.37;;
16994;SDS011;8614;48.522;9.206;2022-07-17T03:30:20;8.03;;;7.33;;
16994;SDS011;8614;48.522;9.206;2022-07-17T03:32:47;8.10;;;7.37;;
16994;SDS011;8614;48.522;9.206;2022-07-17T03:35:14;8.33;;;7.60;;
16994;SDS011;8614;48.522;9.206;2022-07-17T03:37:45;8.57;;;7.73;;
16994;SDS011;8614;48.522;9.206;2022-07-17T03:40:29;7.97;;;7.27;;
16994;SDS011;8614;48.522;9.206;2022-07-17T03:43:20;9.30;;;8.40;;
16994;SDS011;8614;48.522;9.206;2022-07-17T03:46:16;9.27;;;7.90;;
16994;SDS011;8614;48.522;9.206;2022-07-17T03:49:04;8.97;;;8.07;;
16994;SDS011;8614;48.522;9.206;2022-07-17T03:52:01;8.30;;;7.50;;
16994;SDS011;8614;48.522;9.206;2022-07-17T03:54:29;8.63;;;7.83;;
16994;SDS011;8614;48.522;9.206;2022-07-17T03:56:56;8.77;;;8.00;;
16994;SDS011;8614;48.522;9.206;2022-07-17T03:59:23;8.43;;;7.70;;
16994;SDS011;8614;48.522;9.206;2022-07-17T04:01:50;8.70;;;7.80;;
16994;SDS011;8614;48.522;9.206;2022-07-17T04:04:16;8.30;;;7.60;;
16994;SDS011;8614;48.522;9.206;2022-07-17T04:06:43;8.10;;;7.40;;
16994;SDS011;8614;48.522;9.206;2022-07-17T04:09:10;8.27;;;7.47;;
16994;SDS011;8614;48.522;9.206;2022-07-17T04:11:38;8.30;;;7.60;;
16994;SDS011;8614;48.522;9.206;2022-07-17T04:14:05;8.43;;;7.63;;
16994;SDS011;8614;48.522;9.206;2022-07-17T04:16:32;8.03;;;7.33;;
16994;SDS011;8614;48.522;9.206;2022-07-17T04:18:58;8.07;;;7.37;;
16994;SDS011;8614;48.522;9.206;2022-07-17T04:21:25;7.87;;;7.17;;
16994;SDS011;8614;48.522;9.206;2022-07-17T04:23:52;7.73;;;7.13;;
16994;SDS011;8614;48.522;9.206;2022-07-17T04:26:19;7.83;;;7.10;;
16994;SDS011;8614;48.522;9.206;2022-07-17T04:28:47;8.10;;;7.40;;
16994;SDS011;8614;48.522;9.206;2022-07-17T04:31:14;7.83;;;7.13;;
16994;SDS011;8614;48.522;9.206;2022-07-17T04:33:41;7.67;;;7.07;;
16994;SDS011;8614;48.522;9.206;2022-07-17T04:36:07;7.60;;;6.90;;
16994;SDS011;8614;48.522;9.206;2022-07-17T04:38:35;7.90;;;7.20;;
16994;SDS011;8614;48.522;9.206;2022-07-17T04:41:02;7.50;;;6.90;;
16994;SDS011;8614;48.522;9.206;2022-07-17T04:43:28;7.17;;;6.57;;
16994;SDS011;8614;48.522;9.206;2022-07-17T04:45:56;7.90;;;7.10;;
16994;SDS011;8614;48.522;9.206;2022-07-17T04:48:23;7.90;;;7.20;;
16994;SDS011;8614;48.522;9.206;2022-07-17T04:50:50;7.67;;;6.97;;
16994;SDS011;8614;48.522;9.206;2022-07-17T04:53:17;7.77;;;7.17;;
16994;SDS011;8614;48.522;9.206;2022-07-17T04:55:44;7.70;;;7.00;;
16994;SDS011;8614;48.522;9.206;2022-07-17T04:58:11;8.00;;;7.30;;
16994;SDS011;8614;48.522;9.206;2022-07-17T05:00:37;7.93;;;7.13;;
16994;SDS011;8614;48.522;9.206;2022-07-17T05:03:06;7.70;;;7.10;;
16994;SDS011;8614;48.522;9.206;2022-07-17T05:05:32;7.10;;;6.50;;
16994;SDS011;8614;48.522;9.206;2022-07-17T05:07:59;6.50;;;6.00;;
16994;SDS011;8614;48.522;9.206;2022-07-17T05:10:26;7.30;;;6.80;;
16994;SDS011;8614;48.522;9.206;2022-07-17T05:12:53;6.67;;;6.17;;
16994;SDS011;8614;48.522;9.206;2022-07-17T05:15:20;6.93;;;6.33;;
16994;SDS011;8614;48.522;9.206;2022-07-17T05:17:47;7.13;;;6.43;;
16994;SDS011;8614;48.522;9.206;2022-07-17T05:20:15;6.40;;;5.90;;
16994;SDS011;8614;48.522;9.206;2022-07-17T05:22:44;6.90;;;5.73;;
16994;SDS011;8614;48.522;9.206;2022-07-17T05:25:11;6.83;;;6.23;;
16994;SDS011;8614;48.522;9.206;2022-07-17T05:27:38;6.07;;;5.57;;
16994;SDS011;8614;48.522;9.206;2022-07-17T05:30:05;5.00;;;4.60;;
16994;SDS011;8614;48.522;9.206;2022-07-17T05:32:33;3.73;;;3.40;;
16994;SDS011;8614;48.522;9.206;2022-07-17T05:34:59;3.73;;;3.43;;
16994;SDS011;8614;48.522;9.206;2022-07-17T05:37:28;6.37;;;4.10;;
16994;SDS011;8614;48.522;9.206;2022-07-17T05:39:54;4.90;;;4.40;;
16994;SDS011;8614;48.522;9.206;2022-07-17T05:42:21;4.87;;;3.83;;
16994;SDS011;8614;48.522;9.206;2022-07-17T05:44:48;4.67;;;4.23;;
16994;SDS011;8614;48.522;9.206;2022-07-17T05:47:15;5.53;;;4.20;;
16994;SDS011;8614;48.522;9.206;2022-07-17T05:49:41;5.57;;;4.70;;
16994;SDS011;8614;48.522;9.206;2022-07-17T05:52:08;6.60;;;6.00;;
16994;SDS011;8614;48.522;9.206;2022-07-17T05:54:36;4.80;;;4.37;;
16994;SDS011;8614;48.522;9.206;2022-07-17T05:57:03;6.37;;;5.77;;
16994;SDS011;8614;48.522;9.206;2022-07-17T05:59:30;6.43;;;5.83;;
16994;SDS011;8614;48.522;9.206;2022-07-17T06:01:57;5.50;;;5.00;;
16994;SDS011;8614;48.522;9.206;2022-07-17T06:04:24;6.60;;;5.77;;
16994;SDS011;8614;48.522;9.206;2022-07-17T06:06:50;6.50;;;5.90;;
16994;SDS011;8614;48.522;9.206;2022-07-17T06:09:17;7.17;;;6.57;;
16994;SDS011;8614;48.522;9.206;2022-07-17T06:11:45;4.77;;;4.03;;
16994;SDS011;8614;48.522;9.206;2022-07-17T06:14:12;7.87;;;6.73;;
16994;SDS011;8614;48.522;9.206;2022-07-17T06:16:39;5.50;;;5.00;;
16994;SDS011;8614;48.522;9.206;2022-07-17T06:19:06;4.07;;;3.70;;
16994;SDS011;8614;48.522;9.206;2022-07-17T06:21:33;5.23;;;4.60;;
16994;SDS011;8614;48.522;9.206;2022-07-17T06:23:59;6.50;;;5.90;;
16994;SDS011;8614;48.522;9.206;2022-07-17T06:26:26;7.00;;;6.40;;
16994;SDS011;8614;48.522;9.206;2022-07-17T06:28:55;5.63;;;5.13;;
16994;SDS011;8614;48.522;9.206;2022-07-17T06:31:21;5.93;;;5.43;;
16994;SDS011;8614;48.522;9.206;2022-07-17T06:34:23;4.23;;;3.20;;
16994;SDS011;8614;48.522;9.206;2022-07-17T06:36:50;5.63;;;3.43;;
16994;SDS011;8614;48.522;9.206;2022-07-17T06:39:25;4.57;;;3.40;;
16994;SDS011;8614;48.522;9.206;2022-07-17T06:41:58;5.63;;;4.80;;
16994;SDS011;8614;48.522;9.206;2022-07-17T06:44:27;6.90;;;5.43;;
16994;SDS011;8614;48.522;9.206;2022-07-17T06:47:05;5.40;;;4.90;;
16994;SDS011;8614;48.522;9.206;2022-07-17T06:49:36;3.20;;;2.90;;
16994;SDS011;8614;48.522;9.206;2022-07-17T06:52:10;4.63;;;3.30;;
16994;SDS011;8614;48.522;9.206;2022-07-17T06:55:02;4.57;;;3.30;;
16994;SDS011;8614;48.522;9.206;2022-07-17T06:57:30;4.43;;;3.17;;
16994;SDS011;8614;48.522;9.206;2022-07-17T06:59:58;7.10;;;6.40;;
16994;SDS011;8614;48.522;9.206;2022-07-17T07:02:28;4.17;;;3.77;;
16994;SDS011;8614;48.522;9.206;2022-07-17T07:05:03;4.47;;;4.10;;
16994;SDS011;8614;48.522;9.206;2022-07-17T07:07:47;5.50;;;4.87;;
16994;SDS011;8614;48.522;9.206;2022-07-17T07:10:34;6.97;;;4.83;;
16994;SDS011;8614;48.522;9.206;2022-07-17T07:13:51;5.67;;;5.10;;
16994;SDS011;8614;48.522;9.206;2022-07-17T07:17:19;5.53;;;5.13;;
16994;SDS011;8614;48.522;9.206;2022-07-17T07:20:09;5.80;;;5.30;;
16994;SDS011;8614;48.522;9.206;2022-07-17T07:23:08;7.10;;;6.50;;
16994;SDS011;8614;48.522;9.206;2022-07-17T07:26:04;5.70;;;3.67;;
16994;SDS011;8614;48.522;9.206;2022-07-17T07:28:59;5.80;;;5.20;;
16994;SDS011;8614;48.522;9.206;2022-07-17T07:32:16;8.37;;;3.30;;
16994;SDS011;8614;48.522;9.206;2022-07-17T07:35:29;6.45;;;5.35;;
16994;SDS011;8614;48.522;9.206;2022-07-17T07:37:54;6.13;;;5.30;;
16994;SDS011;8614;48.522;9.206;2022-07-17T07:40:20;4.07;;;2.57;;
16994;SDS011;8614;48.522;9.206;2022-07-17T07:43:56;6.40;;;3.20;;
16994;SDS011;8614;48.522;9.206;2022-07-17T07:45:55;5.43;;;4.23;;
16994;SDS011;8614;48.522;9.206;2022-07-17T07:48:28;5.43;;;4.93;;
16994;SDS011;8614;48.522;9.206;2022-07-17T07:51:28;5.70;;;5.20;;
16994;SDS011;8614;48.522;9.206;2022-07-17T07:58:05;4.97;;;4.50;;
16994;SDS011;8614;48.522;9.206;2022-07-17T08:00:39;5.10;;;4.70;;
16994;SDS011;8614;48.522;9.206;2022-07-17T08:03:37;6.03;;;5.43;;
16994;SDS011;8614;48.522;9.206;2022-07-17T08:06:41;5.80;;;5.30;;
16994;SDS011;8614;48.522;9.206;2022-07-17T08:09:10;5.30;;;4.80;;
16994;SDS011;8614;48.522;9.206;2022-07-17T08:11:37;4.97;;;4.57;;
16994;SDS011;8614;48.522;9.206;2022-07-17T08:14:04;6.80;;;3.57;;
16994;SDS011;8614;48.522;9.206;2022-07-17T08:16:31;5.43;;;4.90;;
16994;SDS011;8614;48.522;9.206;2022-07-17T08:18:59;5.70;;;5.20;;
16994;SDS011;8614;48.522;9.206;2022-07-17T08:21:25;4.00;;;3.37;;
16994;SDS011;8614;48.522;9.206;2022-07-17T08:23:53;4.53;;;4.20;;
16994;SDS011;8614;48.522;9.206;2022-07-17T08:26:20;4.77;;;4.27;;
16994;SDS011;8614;48.522;9.206;2022-07-17T08:28:47;5.63;;;5.10;;
16994;SDS011;8614;48.522;9.206;2022-07-17T08:31:13;5.30;;;4.90;;
16994;SDS011;8614;48.522;9.206;2022-07-17T08:33:40;2.90;;;2.60;;
16994;SDS011;8614;48.522;9.206;2022-07-17T08:36:08;3.37;;;2.37;;
16994;SDS011;8614;48.522;9.206;2022-07-17T08:38:35;3.30;;;2.87;;
16994;SDS011;8614;48.522;9.206;2022-07-17T08:41:02;4.73;;;4.33;;
16994;SDS011;8614;48.522;9.206;2022-07-17T08:43:29;4.67;;;3.47;;
16994;SDS011;8614;48.522;9.206;2022-07-17T08:45:56;4.20;;;3.90;;
16994;SDS011;8614;48.522;9.206;2022-07-17T08:48:24;5.00;;;4.60;;
16994;SDS011;8614;48.522;9.206;2022-07-17T08:50:53;5.30;;;4.97;;
16994;SDS011;8614;48.522;9.206;2022-07-17T08:53:22;5.40;;;4.90;;
16994;SDS011;8614;48.522;9.206;2022-07-17T08:55:49;8.73;;;4.80;;
16994;SDS011;8614;48.522;9.206;2022-07-17T08:58:16;5.07;;;4.67;;
16994;SDS011;8614;48.522;9.206;2022-07-17T09:00:43;5.27;;;4.87;;
16994;SDS011;8614;48.522;9.206;2022-07-17T09:03:10;5.20;;;4.80;;
16994;SDS011;8614;48.522;9.206;2022-07-17T09:05:40;4.70;;;4.40;;
16994;SDS011;8614;48.522;9.206;2022-07-17T09:08:08;5.43;;;4.93;;
16994;SDS011;8614;48.522;9.206;2022-07-17T09:10:43;4.90;;;4.50;;
16994;SDS011;8614;48.522;9.206;2022-07-17T09:13:16;4.50;;;4.10;;
16994;SDS011;8614;48.522;9.206;2022-07-17T09:15:45;4.90;;;4.50;;
16994;SDS011;8614;48.522;9.206;2022-07-17T09:18:12;5.60;;;4.77;;
16994;SDS011;8614;48.522;9.206;2022-07-17T09:20:43;5.20;;;4.70;;
16994;SDS011;8614;48.522;9.206;2022-07-17T09:23:11;5.10;;;4.70;;
16994;SDS011;8614;48.522;9.206;2022-07-17T09:25:39;4.73;;;4.33;;
16994;SDS011;8614;48.522;9.206;2022-07-17T09:28:10;4.60;;;4.30;;
16994;SDS011;8614;48.522;9.206;2022-07-17T09:30:39;5.10;;;4.65;;
16994;SDS011;8614;48.522;9.206;2022-07-17T09:33:12;5.40;;;4.53;;
16994;SDS011;8614;48.522;9.206;2022-07-17T09:35:50;5.00;;;4.68;;
16994;SDS011;8614;48.522;9.206;2022-07-17T09:38:26;5.03;;;4.68;;
16994;SDS011;8614;48.522;9.206;2022-07-17T09:41:05;5.10;;;4.60;;
16994;SDS011;8614;48.522;9.206;2022-07-17T09:43:42;4.93;;;4.63;;
16994;SDS011;8614;48.522;9.206;2022-07-17T09:46:11;6.87;;;4.70;;
16994;SDS011;8614;48.522;9.206;2022-07-17T09:48:41;5.17;;;4.77;;
16994;SDS011;8614;48.522;9.206;2022-07-17T09:51:13;5.30;;;4.90;;
16994;SDS011;8614;48.522;9.206;2022-07-17T09:53:51;5.10;;;4.70;;
16994;SDS011;8614;48.522;9.206;2022-07-17T09:56:19;5.27;;;4.77;;
16994;SDS011;8614;48.522;9.206;2022-07-17T09:58:49;6.33;;;4.60;;
16994;SDS011;8614;48.522;9.206;2022-07-17T10:01:17;5.30;;;4.80;;
16994;SDS011;8614;48.522;9.206;2022-07-17T10:03:44;4.97;;;4.67;;
16994;SDS011;8614;48.522;9.206;2022-07-17T10:06:14;4.80;;;4.50;;
16994;SDS011;8614;48.522;9.206;2022-07-17T10:08:41;5.40;;;5.00;;
16994;SDS011;8614;48.522;9.206;2022-07-17T10:11:08;4.73;;;4.40;;
16994;SDS011;8614;48.522;9.206;2022-07-17T10:13:36;5.33;;;4.93;;
16994;SDS011;8614;48.522;9.206;2022-07-17T10:16:07;5.23;;;4.87;;
16994;SDS011;8614;48.522;9.206;2022-07-17T10:18:35;5.43;;;5.00;;
16994;SDS011;8614;48.522;9.206;2022-07-17T10:21:12;4.87;;;4.57;;
16994;SDS011;8614;48.522;9.206;2022-07-17T10:23:40;5.00;;;4.70;;
16994;SDS011;8614;48.522;9.206;2022-07-17T10:26:08;5.03;;;4.70;;
16994;SDS011;8614;48.522;9.206;2022-07-17T10:28:42;4.93;;;4.60;;
16994;SDS011;8614;48.522;9.206;2022-07-17T10:31:21;4.50;;;4.17;;
16994;SDS011;8614;48.522;9.206;2022-07-17T10:33:56;2.33;;;2.13;;
16994;SDS011;8614;48.522;9.206;2022-07-17T10:36:36;3.20;;;2.97;;
16994;SDS011;8614;48.522;9.206;2022-07-17T10:39:11;2.60;;;2.40;;
16994;SDS011;8614;48.522;9.206;2022-07-17T10:41:39;2.30;;;2.10;;
16994;SDS011;8614;48.522;9.206;2022-07-17T10:44:07;2.33;;;2.07;;
16994;SDS011;8614;48.522;9.206;2022-07-17T10:46:35;3.27;;;2.50;;
16994;SDS011;8614;48.522;9.206;2022-07-17T10:49:02;2.60;;;2.13;;
16994;SDS011;8614;48.522;9.206;2022-07-17T10:51:31;2.63;;;2.10;;
16994;SDS011;8614;48.522;9.206;2022-07-17T10:53:59;3.97;;;3.67;;
16994;SDS011;8614;48.522;9.206;2022-07-17T10:56:26;2.60;;;2.40;;
16994;SDS011;8614;48.522;9.206;2022-07-17T10:59:00;4.40;;;2.50;;
16994;SDS011;8614;48.522;9.206;2022-07-17T11:01:28;3.97;;;2.20;;
16994;SDS011;8614;48.522;9.206;2022-07-17T11:03:58;3.77;;;2.50;;
16994;SDS011;8614;48.522;9.206;2022-07-17T11:06:27;3.13;;;2.93;;
16994;SDS011;8614;48.522;9.206;2022-07-17T11:08:57;3.13;;;2.93;;
16994;SDS011;8614;48.522;9.206;2022-07-17T11:11:34;4.47;;;4.10;;
16994;SDS011;8614;48.522;9.206;2022-07-17T11:14:09;4.80;;;4.40;;
16994;SDS011;8614;48.522;9.206;2022-07-17T11:16:37;4.60;;;4.30;;
16994;SDS011;8614;48.522;9.206;2022-07-17T11:19:11;4.93;;;4.53;;
16994;SDS011;8614;48.522;9.206;2022-07-17T11:21:49;4.90;;;4.40;;
16994;SDS011;8614;48.522;9.206;2022-07-17T11:24:17;2.50;;;2.30;;
16994;SDS011;8614;48.522;9.206;2022-07-17T11:26:44;3.47;;;2.13;;
16994;SDS011;8614;48.522;9.206;2022-07-17T11:29:11;2.13;;;2.03;;
16994;SDS011;8614;48.522;9.206;2022-07-17T11:31:40;3.13;;;2.03;;
16994;SDS011;8614;48.522;9.206;2022-07-17T11:34:07;2.17;;;1.97;;
16994;SDS011;8614;48.522;9.206;2022-07-17T11:36:38;2.00;;;1.80;;
16994;SDS011;8614;48.522;9.206;2022-07-17T11:39:07;1.93;;;1.83;;
16994;SDS011;8614;48.522;9.206;2022-07-17T11:41:36;2.90;;;1.80;;
16994;SDS011;8614;48.522;9.206;2022-07-17T11:44:05;1.83;;;1.73;;
16994;SDS011;8614;48.522;9.206;2022-07-17T11:46:34;2.20;;;2.00;;
16994;SDS011;8614;48.522;9.206;2022-07-17T11:49:02;1.97;;;1.87;;
16994;SDS011;8614;48.522;9.206;2022-07-17T11:51:33;2.00;;;1.90;;
16994;SDS011;8614;48.522;9.206;2022-07-17T11:54:06;2.20;;;1.87;;
16994;SDS011;8614;48.522;9.206;2022-07-17T11:56:34;1.83;;;1.63;;
16994;SDS011;8614;48.522;9.206;2022-07-17T11:59:01;2.50;;;2.30;;
16994;SDS011;8614;48.522;9.206;2022-07-17T12:01:29;2.23;;;2.00;;
16994;SDS011;8614;48.522;9.206;2022-07-17T12:04:03;1.90;;;1.80;;
16994;SDS011;8614;48.522;9.206;2022-07-17T12:06:33;2.47;;;2.27;;
16994;SDS011;8614;48.522;9.206;2022-07-17T12:08:59;2.00;;;1.80;;
16994;SDS011;8614;48.522;9.206;2022-07-17T12:11:28;2.20;;;2.00;;
16994;SDS011;8614;48.522;9.206;2022-07-17T12:13:54;1.70;;;1.57;;
16994;SDS011;8614;48.522;9.206;2022-07-17T12:16:31;1.97;;;1.87;;
16994;SDS011;8614;48.522;9.206;2022-07-17T12:19:01;2.90;;;2.70;;
16994;SDS011;8614;48.522;9.206;2022-07-17T12:21:34;3.63;;;3.37;;
16994;SDS011;8614;48.522;9.206;2022-07-17T12:24:18;4.37;;;3.97;;
16994;SDS011;8614;48.522;9.206;2022-07-17T12:26:48;4.60;;;4.30;;
16994;SDS011;8614;48.522;9.206;2022-07-17T12:29:15;4.33;;;4.03;;
16994;SDS011;8614;48.522;9.206;2022-07-17T12:31:42;4.50;;;4.10;;
16994;SDS011;8614;48.522;9.206;2022-07-17T12:34:09;4.50;;;4.20;;
16994;SDS011;8614;48.522;9.206;2022-07-17T12:36:36;4.50;;;4.20;;
16994;SDS011;8614;48.522;9.206;2022-07-17T12:39:03;4.33;;;4.03;;
16994;SDS011;8614;48.522;9.206;2022-07-17T12:41:30;4.23;;;3.97;;
16994;SDS011;8614;48.522;9.206;2022-07-17T12:43:59;4.53;;;4.13;;
16994;SDS011;8614;48.522;9.206;2022-07-17T12:46:25;4.80;;;4.37;;
16994;SDS011;8614;48.522;9.206;2022-07-17T12:48:52;4.93;;;4.53;;
16994;SDS011;8614;48.522;9.206;2022-07-17T12:51:19;4.30;;;4.00;;
16994;SDS011;8614;48.522;9.206;2022-07-17T12:53:46;4.67;;;4.27;;
16994;SDS011;8614;48.522;9.206;2022-07-17T12:56:13;4.70;;;4.37;;
16994;SDS011;8614;48.522;9.206;2022-07-17T12:58:40;4.30;;;4.00;;
16994;SDS011;8614;48.522;9.206;2022-07-17T13:01:08;4.67;;;4.27;;
16994;SDS011;8614;48.522;9.206;2022-07-17T13:03:35;2.47;;;2.03;;
16994;SDS011;8614;48.522;9.206;2022-07-17T13:06:03;3.10;;;2.10;;
16994;SDS011;8614;48.522;9.206;2022-07-17T13:08:30;1.87;;;1.77;;
16994;SDS011;8614;48.522;9.206;2022-07-17T13:10:57;1.80;;;1.70;;
16994;SDS011;8614;48.522;9.206;2022-07-17T13:13:24;2.03;;;1.83;;
16994;SDS011;8614;48.522;9.206;2022-07-17T13:15:51;2.30;;;2.10;;
16994;SDS011;8614;48.522;9.206;2022-07-17T13:18:19;1.97;;;1.87;;
16994;SDS011;8614;48.522;9.206;2022-07-17T13:20:46;2.00;;;1.90;;
16994;SDS011;8614;48.522;9.206;2022-07-17T13:23:13;2.23;;;1.90;;
16994;SDS011;8614;48.522;9.206;2022-07-17T13:25:40;2.40;;;2.17;;
16994;SDS011;8614;48.522;9.206;2022-07-17T13:28:09;4.13;;;3.80;;
16994;SDS011;8614;48.522;9.206;2022-07-17T13:30:36;4.33;;;4.03;;
16994;SDS011;8614;48.522;9.206;2022-07-17T13:33:03;3.90;;;2.67;;
16994;SDS011;8614;48.522;9.206;2022-07-17T13:35:31;2.50;;;2.40;;
16994;SDS011;8614;48.522;9.206;2022-07-17T13:37:58;4.20;;;3.77;;
16994;SDS011;8614;48.522;9.206;2022-07-17T13:40:26;2.53;;;2.33;;
16994;SDS011;8614;48.522;9.206;2022-07-17T13:42:54;2.80;;;2.60;;
16994;SDS011;8614;48.522;9.206;2022-07-17T13:45:21;2.90;;;2.70;;
16994;SDS011;8614;48.522;9.206;2022-07-17T13:47:48;4.30;;;4.00;;
16994;SDS011;8614;48.522;9.206;2022-07-17T13:50:16;4.40;;;4.00;;
16994;SDS011;8614;48.522;9.206;2022-07-17T13:52:44;5.43;;;4.67;;
16994;SDS011;8614;48.522;9.206;2022-07-17T13:55:11;5.13;;;4.80;;
16994;SDS011;8614;48.522;9.206;2022-07-17T13:57:39;4.93;;;4.60;;
16994;SDS011;8614;48.522;9.206;2022-07-17T14:00:06;2.00;;;1.87;;
16994;SDS011;8614;48.522;9.206;2022-07-17T14:02:35;2.20;;;1.90;;
16994;SDS011;8614;48.522;9.206;2022-07-17T14:05:03;2.40;;;1.80;;
16994;SDS011;8614;48.522;9.206;2022-07-17T14:07:31;3.07;;;2.17;;
16994;SDS011;8614;48.522;9.206;2022-07-17T14:09:59;1.80;;;1.70;;
16994;SDS011;8614;48.522;9.206;2022-07-17T14:12:26;1.97;;;1.83;;
16994;SDS011;8614;48.522;9.206;2022-07-17T14:14:53;2.27;;;2.10;;
16994;SDS011;8614;48.522;9.206;2022-07-17T14:17:20;2.10;;;1.90;;
16994;SDS011;8614;48.522;9.206;2022-07-17T14:19:47;2.77;;;1.80;;
16994;SDS011;8614;48.522;9.206;2022-07-17T14:22:14;2.00;;;1.90;;
16994;SDS011;8614;48.522;9.206;2022-07-17T14:24:40;2.30;;;2.10;;
16994;SDS011;8614;48.522;9.206;2022-07-17T14:27:09;3.90;;;2.03;;
16994;SDS011;8614;48.522;9.206;2022-07-17T14:29:35;2.33;;;1.80;;
16994;SDS011;8614;48.522;9.206;2022-07-17T14:32:02;2.23;;;1.80;;
16994;SDS011;8614;48.522;9.206;2022-07-17T14:34:29;1.80;;;1.70;;
16994;SDS011;8614;48.522;9.206;2022-07-17T14:36:56;2.07;;;1.97;;
16994;SDS011;8614;48.522;9.206;2022-07-17T14:39:24;2.40;;;1.77;;
16994;SDS011;8614;48.522;9.206;2022-07-17T14:41:53;1.93;;;1.77;;
16994;SDS011;8614;48.522;9.206;2022-07-17T14:44:23;2.00;;;1.80;;
16994;SDS011;8614;48.522;9.206;2022-07-17T14:46:50;2.03;;;1.87;;
16994;SDS011;8614;48.522;9.206;2022-07-17T14:49:17;2.10;;;2.00;;
16994;SDS011;8614;48.522;9.206;2022-07-17T14:51:44;3.03;;;1.90;;
16994;SDS011;8614;48.522;9.206;2022-07-17T14:54:11;1.80;;;1.70;;
16994;SDS011;8614;48.522;9.206;2022-07-17T14:56:37;2.20;;;2.00;;
16994;SDS011;8614;48.522;9.206;2022-07-17T14:59:04;2.20;;;2.00;;
16994;SDS011;8614;48.522;9.206;2022-07-17T15:01:32;2.20;;;2.00;;
16994;SDS011;8614;48.522;9.206;2022-07-17T15:03:59;2.03;;;1.83;;
16994;SDS011;8614;48.522;9.206;2022-07-17T15:06:26;2.50;;;2.10;;
16994;SDS011;8614;48.522;9.206;2022-07-17T15:08:53;2.10;;;2.00;;
16994;SDS011;8614;48.522;9.206;2022-07-17T15:11:19;2.47;;;2.23;;
16994;SDS011;8614;48.522;9.206;2022-07-17T15:13:47;4.47;;;2.23;;
16994;SDS011;8614;48.522;9.206;2022-07-17T15:16:25;2.03;;;1.90;;
16994;SDS011;8614;48.522;9.206;2022-07-17T15:18:55;1.93;;;1.83;;
16994;SDS011;8614;48.522;9.206;2022-07-17T15:21:23;2.00;;;1.90;;